createdAt,value
2018-09-29T00:01:09.444Z,1.40
2018-09-29T00:03:37.632Z,1.93
2018-09-29T00:06:05.832Z,1.67
2018-09-29T00:08:33.979Z,1.60
2018-09-29T00:11:02.152Z,1.20
2018-09-29T00:13:30.317Z,2.40
2018-09-29T00:15:58.444Z,1.30
2018-09-29T00:18:26.573Z,1.57
2018-09-29T00:20:54.832Z,1.30
2018-09-29T00:23:22.973Z,1.80
2018-09-29T00:25:51.204Z,1.45
2018-09-29T00:28:19.356Z,1.47
2018-09-29T00:30:47.495Z,1.30
2018-09-29T00:33:15.639Z,1.13
2018-09-29T00:35:44.043Z,1.40
2018-09-29T00:38:12.192Z,1.20
2018-09-29T00:40:40.396Z,1.37
2018-09-29T00:43:08.533Z,1.67
2018-09-29T00:45:36.807Z,1.87
2018-09-29T00:48:04.994Z,1.27
2018-09-29T00:50:33.191Z,1.23
2018-09-29T00:53:01.356Z,1.30
2018-09-29T00:55:29.550Z,1.33
2018-09-29T00:57:57.725Z,1.60
2018-09-29T01:00:25.891Z,1.10
2018-09-29T01:02:54.044Z,1.10
2018-09-29T01:05:22.171Z,1.60
2018-09-29T01:07:50.302Z,1.27
2018-09-29T01:10:18.466Z,1.50
2018-09-29T01:12:46.628Z,1.40
2018-09-29T01:15:14.836Z,1.30
2018-09-29T01:17:43.010Z,1.70
2018-09-29T01:20:11.140Z,1.30
2018-09-29T01:22:39.284Z,1.00
2018-09-29T01:25:07.440Z,1.13
2018-09-29T01:27:35.575Z,1.20
2018-09-29T01:30:03.851Z,1.20
2018-09-29T01:32:32.012Z,1.40
2018-09-29T01:35:00.190Z,1.27
2018-09-29T01:37:28.536Z,1.22
2018-09-29T01:39:56.780Z,1.27
2018-09-29T01:42:25.260Z,1.30
2018-09-29T01:44:53.381Z,1.40
2018-09-29T01:47:21.832Z,1.07
2018-09-29T01:49:49.964Z,1.47
2018-09-29T01:52:18.212Z,1.60
2018-09-29T01:54:46.344Z,2.00
2018-09-29T01:57:14.488Z,1.77
2018-09-29T01:59:42.635Z,1.35
2018-09-29T02:02:10.792Z,1.72
2018-09-29T02:04:38.920Z,1.00
2018-09-29T02:07:07.120Z,1.30
2018-09-29T02:09:35.538Z,1.57
2018-09-29T02:12:03.725Z,1.45
2018-09-29T02:14:31.833Z,1.90
2018-09-29T02:16:59.987Z,1.30
2018-09-29T02:19:28.189Z,1.70
2018-09-29T02:21:56.335Z,2.95
2018-09-29T02:24:24.751Z,1.55
2018-09-29T02:26:52.880Z,1.30
2018-09-29T02:29:21.008Z,1.30
2018-09-29T02:31:49.487Z,2.15
2018-09-29T02:34:17.640Z,1.60
2018-09-29T02:36:45.853Z,1.60
2018-09-29T02:39:13.991Z,1.40
2018-09-29T02:41:42.149Z,1.40
2018-09-29T02:44:10.280Z,1.60
2018-09-29T02:46:38.404Z,1.72
2018-09-29T02:49:06.568Z,1.40
2018-09-29T02:51:34.928Z,1.40
2018-09-29T02:54:03.121Z,1.47
2018-09-29T02:56:31.369Z,1.32
2018-09-29T02:58:59.515Z,2.37
2018-09-29T03:01:27.681Z,1.50
2018-09-29T03:03:55.920Z,1.40
2018-09-29T03:06:24.098Z,1.35
2018-09-29T03:08:52.248Z,1.15
2018-09-29T03:11:20.392Z,1.30
2018-09-29T03:13:48.534Z,1.50
2018-09-29T03:16:16.737Z,1.30
2018-09-29T03:18:44.869Z,1.57
2018-09-29T03:21:12.992Z,1.45
2018-09-29T03:23:41.220Z,1.32
2018-09-29T03:26:09.365Z,1.67
2018-09-29T03:28:37.527Z,1.70
2018-09-29T03:31:05.952Z,1.07
2018-09-29T03:33:34.104Z,1.37
2018-09-29T03:36:02.244Z,1.20
2018-09-29T03:38:30.408Z,1.98
2018-09-29T03:40:58.620Z,2.15
2018-09-29T03:43:26.759Z,1.65
2018-09-29T03:45:54.912Z,1.30
2018-09-29T03:48:23.041Z,1.40
2018-09-29T03:50:51.169Z,1.17
2018-09-29T03:53:19.283Z,1.42
2018-09-29T03:55:47.408Z,1.82
2018-09-29T03:58:15.543Z,1.50
2018-09-29T04:00:43.675Z,1.35
2018-09-29T04:03:11.810Z,1.22
2018-09-29T04:05:40.437Z,1.85
2018-09-29T04:08:10.715Z,1.30
2018-09-29T04:10:38.825Z,1.62
2018-09-29T04:13:07.060Z,1.57
2018-09-29T04:15:35.209Z,1.52
2018-09-29T04:18:03.416Z,2.08
2018-09-29T04:20:31.563Z,1.52
2018-09-29T04:22:59.704Z,1.37
2018-09-29T04:25:27.844Z,1.10
2018-09-29T04:27:56.073Z,1.30
2018-09-29T04:30:24.217Z,2.47
2018-09-29T04:32:52.331Z,1.27
2018-09-29T04:35:20.464Z,1.62
2018-09-29T04:37:48.616Z,1.42
2018-09-29T04:40:16.768Z,1.40
2018-09-29T04:42:44.904Z,1.50
2018-09-29T04:45:13.066Z,1.57
2018-09-29T04:47:41.720Z,1.20
2018-09-29T04:50:09.957Z,1.30
2018-09-29T04:52:38.107Z,1.70
2018-09-29T04:55:06.252Z,1.20
2018-09-29T04:57:34.407Z,1.60
2018-09-29T05:00:02.536Z,2.15
2018-09-29T05:02:30.752Z,1.67
2018-09-29T05:04:58.880Z,1.47
2018-09-29T05:07:27.381Z,1.35
2018-09-29T05:09:55.539Z,1.60
2018-09-29T05:12:24.048Z,2.08
2018-09-29T05:14:52.182Z,1.47
2018-09-29T05:17:20.348Z,1.82
2018-09-29T05:19:51.092Z,1.20
2018-09-29T05:22:19.544Z,1.70
2018-09-29T05:24:47.706Z,2.80
2018-09-29T05:27:15.835Z,1.70
2018-09-29T05:29:44.383Z,1.37
2018-09-29T05:32:12.508Z,1.60
2018-09-29T05:34:40.734Z,1.52
2018-09-29T05:37:08.868Z,1.70
2018-09-29T05:39:37.003Z,1.70
2018-09-29T05:42:05.127Z,1.40
2018-09-29T05:44:33.260Z,1.35
2018-09-29T05:47:01.399Z,1.20
2018-09-29T05:49:29.591Z,1.22
2018-09-29T05:51:57.747Z,2.08
2018-09-29T05:54:25.878Z,1.30
2018-09-29T05:56:54.043Z,1.70
2018-09-29T05:59:22.185Z,1.67
2018-09-29T06:01:50.296Z,1.90
2018-09-29T06:04:18.431Z,1.47
2018-09-29T06:06:46.581Z,1.20
2018-09-29T06:09:14.768Z,1.40
2018-09-29T06:11:42.899Z,1.67
2018-09-29T06:14:11.055Z,1.20
2018-09-29T06:16:39.204Z,1.30
2018-09-29T06:19:07.427Z,1.60
2018-09-29T06:21:35.577Z,1.70
2018-09-29T06:24:03.725Z,1.57
2018-09-29T06:26:31.880Z,1.65
2018-09-29T06:29:00.004Z,1.70
2018-09-29T06:31:28.270Z,1.40
2018-09-29T06:33:56.421Z,1.95
2018-09-29T06:36:24.588Z,1.98
2018-09-29T06:38:52.733Z,1.57
2018-09-29T06:41:20.964Z,1.70
2018-09-29T06:43:49.579Z,1.95
2018-09-29T06:46:18.176Z,1.40
2018-09-29T06:48:47.012Z,1.32
2018-09-29T06:51:15.598Z,1.70
2018-09-29T06:53:43.964Z,1.62
2018-09-29T06:56:12.821Z,1.10
2018-09-29T06:58:41.189Z,1.67
2018-09-29T07:01:09.670Z,1.70
2018-09-29T07:03:38.522Z,1.50
2018-09-29T07:06:07.181Z,1.60
2018-09-29T07:08:35.380Z,2.05
2018-09-29T07:11:03.815Z,1.60
2018-09-29T07:13:32.032Z,1.62
2018-09-29T07:16:00.198Z,1.30
2018-09-29T07:18:28.435Z,1.80
2018-09-29T07:20:56.668Z,1.87
2018-09-29T07:23:25.231Z,1.40
2018-09-29T07:25:53.337Z,2.02
2018-09-29T07:28:21.672Z,1.60
2018-09-29T07:30:49.840Z,1.55
2018-09-29T07:33:17.981Z,1.30
2018-09-29T07:35:46.427Z,1.50
2018-09-29T07:38:14.650Z,1.00
2018-09-29T07:40:42.981Z,1.57
2018-09-29T07:43:11.207Z,1.37
2018-09-29T07:45:39.360Z,1.60
2018-09-29T07:48:07.612Z,2.03
2018-09-29T07:50:35.809Z,1.20
2018-09-29T07:53:04.103Z,1.90
2018-09-29T07:55:33.044Z,2.98
2018-09-29T07:58:01.264Z,1.30
2018-09-29T08:00:29.512Z,1.35
2018-09-29T08:02:57.809Z,1.50
2018-09-29T08:05:26.053Z,1.63
2018-09-29T08:07:54.329Z,1.10
2018-09-29T08:10:22.705Z,1.00
2018-09-29T08:12:50.932Z,1.30
2018-09-29T08:15:19.263Z,1.50
2018-09-29T08:17:47.517Z,1.03
2018-09-29T08:20:15.728Z,1.70
2018-09-29T08:22:43.928Z,2.00
2018-09-29T08:25:12.389Z,1.30
2018-09-29T08:27:40.828Z,1.47
2018-09-29T08:30:09.148Z,1.00
2018-09-29T08:32:37.866Z,1.00
2018-09-29T08:35:06.170Z,0.93
2018-09-29T08:37:34.613Z,1.00
2018-09-29T08:40:02.872Z,1.00
2018-09-29T08:42:31.297Z,1.02
2018-09-29T08:44:59.742Z,0.87
2018-09-29T08:47:27.883Z,1.10
2018-09-29T08:49:56.205Z,1.47
2018-09-29T08:52:24.326Z,0.90
2018-09-29T08:54:52.468Z,0.90
2018-09-29T08:57:20.764Z,1.17
2018-09-29T08:59:48.908Z,0.70
2018-09-29T09:02:17.170Z,1.63
2018-09-29T09:04:45.659Z,1.13
2018-09-29T09:07:13.812Z,0.80
2018-09-29T09:09:42.014Z,0.80
2018-09-29T09:12:10.284Z,0.90
2018-09-29T09:14:38.511Z,0.97
2018-09-29T09:17:06.702Z,0.90
2018-09-29T09:19:34.828Z,0.75
2018-09-29T09:22:02.989Z,0.80
2018-09-29T09:24:31.229Z,1.07
2018-09-29T09:26:59.388Z,0.90
2018-09-29T09:29:27.704Z,0.87
2018-09-29T09:31:55.878Z,1.00
2018-09-29T09:34:24.060Z,0.90
2018-09-29T09:36:52.197Z,0.87
2018-09-29T09:39:20.625Z,1.10
2018-09-29T09:41:48.926Z,1.10
2018-09-29T09:44:17.153Z,0.83
2018-09-29T09:46:45.508Z,0.80
2018-09-29T09:49:13.810Z,1.00
2018-09-29T09:51:42.833Z,1.20
2018-09-29T09:54:11.135Z,0.90
2018-09-29T09:56:39.289Z,1.30
2018-09-29T09:59:07.403Z,1.10
2018-09-29T10:01:39.736Z,0.80
2018-09-29T10:04:08.116Z,1.02
2018-09-29T10:06:36.634Z,0.90
2018-09-29T10:09:08.063Z,0.80
2018-09-29T10:11:36.503Z,1.00
2018-09-29T10:14:04.709Z,0.77
2018-09-29T10:16:33.481Z,0.80
2018-09-29T10:19:01.752Z,0.90
2018-09-29T10:21:30.174Z,0.83
2018-09-29T10:23:58.590Z,0.50
2018-09-29T10:26:27.098Z,0.80
2018-09-29T10:28:55.387Z,0.80
2018-09-29T10:31:23.635Z,1.00
2018-09-29T10:33:51.976Z,0.90
2018-09-29T10:36:20.407Z,0.93
2018-09-29T10:38:48.666Z,0.90
2018-09-29T10:41:18.193Z,0.70
2018-09-29T10:43:46.945Z,1.10
2018-09-29T10:46:15.300Z,1.00
2018-09-29T10:48:44.459Z,0.80
2018-09-29T10:51:12.933Z,0.80
2018-09-29T10:53:41.480Z,0.80
2018-09-29T10:56:09.805Z,0.90
2018-09-29T10:58:37.956Z,0.80
2018-09-29T11:01:06.508Z,0.90
2018-09-29T11:03:35.433Z,0.80
2018-09-29T11:06:04.259Z,1.00
2018-09-29T11:08:32.714Z,0.90
2018-09-29T11:11:01.354Z,0.73
2018-09-29T11:13:29.942Z,0.93
2018-09-29T11:15:58.678Z,0.93
2018-09-29T11:18:27.541Z,1.03
2018-09-29T11:20:56.025Z,0.98
2018-09-29T11:23:24.457Z,1.13
2018-09-29T11:25:52.838Z,1.00
2018-09-29T11:28:21.293Z,0.87
2018-09-29T11:30:49.552Z,0.90
2018-09-29T11:33:17.872Z,1.10
2018-09-29T11:35:46.281Z,0.95
2018-09-29T11:38:15.496Z,1.22
2018-09-29T11:40:44.041Z,0.93
2018-09-29T11:43:12.651Z,1.20
2018-09-29T11:45:41.078Z,1.60
2018-09-29T11:48:09.656Z,1.15
2018-09-29T11:50:38.281Z,1.50
2018-09-29T11:53:06.737Z,1.27
2018-09-29T11:55:35.155Z,1.10
2018-09-29T11:58:03.509Z,1.20
2018-09-29T12:00:31.997Z,1.20
2018-09-29T12:03:00.461Z,1.23
2018-09-29T12:05:28.907Z,1.07
2018-09-29T12:07:57.409Z,1.03
2018-09-29T12:10:25.737Z,1.67
2018-09-29T12:12:54.251Z,1.07
2018-09-29T12:15:22.790Z,1.70
2018-09-29T12:17:51.187Z,1.30
2018-09-29T12:20:19.464Z,1.20
2018-09-29T12:22:47.765Z,1.10
2018-09-29T12:25:16.650Z,1.15
2018-09-29T12:27:45.161Z,1.30
2018-09-29T12:30:13.726Z,1.50
2018-09-29T12:32:42.051Z,1.53
2018-09-29T12:35:10.460Z,1.30
2018-09-29T12:37:39.171Z,1.50
2018-09-29T12:40:07.465Z,0.90
2018-09-29T12:42:35.810Z,1.30
2018-09-29T12:45:04.207Z,1.20
2018-09-29T12:47:32.722Z,1.37
2018-09-29T12:50:01.323Z,1.12
2018-09-29T12:52:29.975Z,1.43
2018-09-29T12:54:58.556Z,1.00
2018-09-29T12:57:27.158Z,1.40
2018-09-29T12:59:55.649Z,1.37
2018-09-29T13:02:24.120Z,1.20
2018-09-29T13:04:52.888Z,1.30
2018-09-29T13:07:21.267Z,1.50
2018-09-29T13:09:49.541Z,1.40
2018-09-29T13:12:17.937Z,1.17
2018-09-29T13:14:46.404Z,1.30
2018-09-29T13:17:14.778Z,1.25
2018-09-29T13:19:43.379Z,1.87
2018-09-29T13:22:11.975Z,1.20
2018-09-29T13:24:40.388Z,1.10
2018-09-29T13:27:08.851Z,1.30
2018-09-29T13:29:37.159Z,1.50
2018-09-29T13:32:05.344Z,1.23
2018-09-29T13:34:33.765Z,1.37
2018-09-29T13:37:02.225Z,1.20
2018-09-29T13:39:30.685Z,1.10
2018-09-29T13:41:59.200Z,1.33
2018-09-29T13:44:27.673Z,1.50
2018-09-29T13:46:56.046Z,0.90
2018-09-29T13:49:24.557Z,0.93
2018-09-29T13:51:53.065Z,1.00
2018-09-29T13:54:21.325Z,1.20
2018-09-29T13:56:49.676Z,1.00
2018-09-29T13:59:18.966Z,1.32
2018-09-29T14:01:47.432Z,1.07
2018-09-29T14:04:15.856Z,1.10
2018-09-29T14:06:44.474Z,1.00
2018-09-29T14:09:12.806Z,1.30
2018-09-29T14:11:41.525Z,1.10
2018-09-29T14:14:10.202Z,1.00
2018-09-29T14:16:38.634Z,1.70
2018-09-29T14:19:07.157Z,1.10
2018-09-29T14:21:35.602Z,0.93
2018-09-29T14:24:04.076Z,1.03
2018-09-29T14:26:32.456Z,1.02
2018-09-29T14:29:00.890Z,1.10
2018-09-29T14:31:29.447Z,1.20
2018-09-29T14:33:57.837Z,1.00
2018-09-29T14:36:26.195Z,1.00
2018-09-29T14:38:54.897Z,1.10
2018-09-29T14:41:23.194Z,0.93
2018-09-29T14:43:51.590Z,1.33
2018-09-29T14:46:20.225Z,1.22
2018-09-29T14:48:48.527Z,1.23
2018-09-29T14:51:16.969Z,1.30
2018-09-29T14:53:45.510Z,1.50
2018-09-29T14:56:13.936Z,1.30
2018-09-29T14:58:42.559Z,1.37
2018-09-29T15:01:11.701Z,1.30
2018-09-29T15:03:40.149Z,1.17
2018-09-29T15:06:08.400Z,1.40
2018-09-29T15:08:36.907Z,1.00
2018-09-29T15:11:05.315Z,1.33
2018-09-29T15:13:33.587Z,1.10
2018-09-29T15:16:01.985Z,1.00
2018-09-29T15:18:30.416Z,1.00
2018-09-29T15:20:58.829Z,0.90
2018-09-29T15:23:27.210Z,1.30
2018-09-29T15:25:55.694Z,1.17
2018-09-29T15:28:24.159Z,1.10
2018-09-29T15:30:52.725Z,1.10
2018-09-29T15:33:21.155Z,1.20
2018-09-29T15:35:49.549Z,1.30
2018-09-29T15:38:17.956Z,0.90
2018-09-29T15:40:47.221Z,1.00
2018-09-29T15:43:16.566Z,1.03
2018-09-29T15:45:44.959Z,0.80
2018-09-29T15:48:13.928Z,0.77
2018-09-29T15:50:42.546Z,0.80
2018-09-29T15:53:11.065Z,0.90
2018-09-29T15:55:39.638Z,0.88
2018-09-29T15:58:08.061Z,0.90
2018-09-29T16:00:37.010Z,0.90
2018-09-29T16:03:05.811Z,0.83
2018-09-29T16:05:34.823Z,1.00
2018-09-29T16:08:03.434Z,0.90
2018-09-29T16:10:31.909Z,1.27
2018-09-29T16:13:00.331Z,0.90
2018-09-29T16:15:28.835Z,1.15
2018-09-29T16:17:57.234Z,1.00
2018-09-29T16:20:25.736Z,1.00
2018-09-29T16:22:54.359Z,0.80
2018-09-29T16:25:23.641Z,1.00
2018-09-29T16:27:52.121Z,1.10
2018-09-29T16:30:20.710Z,0.80
2018-09-29T16:32:49.185Z,0.90
2018-09-29T16:35:17.607Z,0.90
2018-09-29T16:37:46.345Z,0.80
2018-09-29T16:40:14.893Z,0.90
2018-09-29T16:42:43.440Z,0.90
2018-09-29T16:45:11.961Z,0.88
2018-09-29T16:47:40.358Z,1.10
2018-09-29T16:50:08.764Z,0.73
2018-09-29T16:52:37.146Z,1.10
2018-09-29T16:55:05.680Z,0.87
2018-09-29T16:57:34.122Z,0.93
2018-09-29T17:00:02.554Z,0.70
2018-09-29T17:02:30.969Z,1.03
2018-09-29T17:04:59.417Z,1.17
2018-09-29T17:07:28.350Z,1.25
2018-09-29T17:09:56.653Z,0.80
2018-09-29T17:12:24.952Z,1.00
2018-09-29T17:14:53.339Z,0.90
2018-09-29T17:17:21.652Z,0.80
2018-09-29T17:19:50.093Z,0.80
2018-09-29T17:22:18.482Z,1.00
2018-09-29T17:24:47.007Z,0.80
2018-09-29T17:27:15.793Z,0.80
2018-09-29T17:29:44.060Z,0.75
2018-09-29T17:32:12.709Z,0.80
2018-09-29T17:34:41.025Z,0.70
2018-09-29T17:37:10.054Z,1.40
2018-09-29T17:39:38.473Z,0.83
2018-09-29T17:42:06.801Z,0.90
2018-09-29T17:44:35.234Z,0.90
2018-09-29T17:47:03.598Z,1.27
2018-09-29T17:49:31.833Z,1.00
2018-09-29T17:52:00.349Z,0.93
2018-09-29T17:54:28.580Z,0.90
2018-09-29T17:56:56.869Z,0.70
2018-09-29T17:59:25.100Z,1.02
2018-09-29T18:01:53.334Z,0.82
2018-09-29T18:04:21.603Z,1.10
2018-09-29T18:06:49.811Z,1.03
2018-09-29T18:09:18.250Z,1.07
2018-09-29T18:11:53.221Z,1.20
2018-09-29T18:14:21.529Z,0.80
2018-09-29T18:16:49.800Z,0.97
2018-09-29T18:19:18.207Z,1.00
2018-09-29T18:21:46.722Z,0.87
2018-09-29T18:24:15.084Z,0.97
2018-09-29T18:26:43.705Z,1.10
2018-09-29T18:29:12.308Z,1.00
2018-09-29T18:31:40.851Z,1.00
2018-09-29T18:34:09.625Z,0.83
2018-09-29T18:36:38.110Z,1.20
2018-09-29T18:39:08.455Z,0.95
2018-09-29T18:41:37.067Z,1.10
2018-09-29T18:44:05.628Z,1.00
2018-09-29T18:46:34.062Z,1.10
2018-09-29T18:49:02.515Z,0.90
2018-09-29T18:51:31.022Z,0.87
2018-09-29T18:53:59.437Z,0.93
2018-09-29T18:56:27.997Z,1.20
2018-09-29T18:58:56.378Z,1.10
2018-09-29T19:01:24.861Z,1.12
2018-09-29T19:03:53.292Z,0.97
2018-09-29T19:06:21.656Z,1.20
2018-09-29T19:08:50.071Z,0.80
2018-09-29T19:11:18.490Z,1.03
2018-09-29T19:13:46.781Z,1.27
2018-09-29T19:16:15.151Z,1.00
2018-09-29T19:18:44.130Z,1.00
2018-09-29T19:21:12.627Z,0.90
2018-09-29T19:23:41.354Z,1.40
2018-09-29T19:26:09.841Z,0.90
2018-09-29T19:28:38.292Z,1.10
2018-09-29T19:31:06.828Z,0.90
2018-09-29T19:33:35.234Z,0.83
2018-09-29T19:36:04.573Z,0.93
2018-09-29T19:38:32.893Z,1.00
2018-09-29T19:41:01.221Z,1.20
2018-09-29T19:43:29.709Z,1.50
2018-09-29T19:45:58.175Z,0.80
2018-09-29T19:48:26.567Z,0.90
2018-09-29T19:50:54.887Z,1.15
2018-09-29T19:53:23.190Z,1.40
2018-09-29T19:55:51.604Z,1.33
2018-09-29T19:58:20.045Z,1.30
2018-09-29T20:00:48.647Z,1.17
2018-09-29T20:03:16.866Z,1.67
2018-09-29T20:05:45.257Z,1.40
2018-09-29T20:08:13.848Z,1.15
2018-09-29T20:10:42.429Z,1.30
2018-09-29T20:13:10.963Z,1.30
2018-09-29T20:15:39.468Z,1.53
2018-09-29T20:18:07.926Z,2.57
2018-09-29T20:20:36.384Z,1.70
2018-09-29T20:23:04.634Z,1.57
2018-09-29T20:25:33.168Z,1.53
2018-09-29T20:28:01.652Z,1.73
2018-09-29T20:30:30.182Z,1.50
2018-09-29T20:32:58.505Z,1.57
2018-09-29T20:35:26.918Z,1.55
2018-09-29T20:37:55.236Z,1.50
2018-09-29T20:40:23.596Z,1.30
2018-09-29T20:42:51.991Z,1.93
2018-09-29T20:45:20.418Z,2.03
2018-09-29T20:47:48.870Z,1.80
2018-09-29T20:50:17.240Z,1.40
2018-09-29T20:52:45.644Z,1.70
2018-09-29T20:55:14.089Z,1.70
2018-09-29T20:57:42.501Z,2.33
2018-09-29T21:00:11.054Z,2.45
2018-09-29T21:02:39.833Z,2.60
2018-09-29T21:05:08.375Z,2.90
2018-09-29T21:07:37.190Z,2.70
2018-09-29T21:10:05.817Z,2.00
2018-09-29T21:12:34.294Z,1.63
2018-09-29T21:15:02.693Z,1.70
2018-09-29T21:17:31.062Z,1.60
2018-09-29T21:19:59.405Z,1.60
2018-09-29T21:22:27.773Z,2.40
2018-09-29T21:24:56.171Z,1.90
2018-09-29T21:27:24.623Z,2.20
2018-09-29T21:29:53.001Z,1.55
2018-09-29T21:32:21.450Z,2.27
2018-09-29T21:34:49.787Z,2.83
2018-09-29T21:37:18.308Z,2.90
2018-09-29T21:39:46.711Z,3.12
2018-09-29T21:42:15.075Z,2.80
2018-09-29T21:44:43.552Z,1.80
2018-09-29T21:47:12.179Z,2.80
2018-09-29T21:49:40.620Z,2.00
2018-09-29T21:52:09.073Z,2.73
2018-09-29T21:54:37.541Z,1.60
2018-09-29T21:57:05.896Z,1.70
2018-09-29T22:02:39.571Z,2.50
2018-09-29T22:05:08.025Z,2.40
2018-09-29T22:07:36.289Z,1.70
2018-09-29T22:10:04.574Z,1.40
2018-09-29T22:12:32.873Z,2.30
2018-09-29T22:15:01.103Z,1.55
2018-09-29T22:17:29.523Z,1.80
2018-09-29T22:19:57.923Z,1.77
2018-09-29T22:22:26.075Z,1.80
2018-09-29T22:24:54.561Z,2.72
2018-09-29T22:27:29.596Z,2.43
2018-09-29T22:29:57.745Z,2.70
2018-09-29T22:32:25.927Z,2.80
2018-09-29T22:34:54.334Z,1.87
2018-09-29T22:37:22.795Z,2.57
2018-09-29T22:39:50.974Z,2.07
2018-09-29T22:42:22.183Z,1.67
2018-09-29T22:44:50.593Z,1.93
2018-09-29T22:47:18.985Z,1.80
2018-09-29T22:49:47.253Z,2.30
2018-09-29T22:52:15.696Z,2.30
2018-09-29T22:54:44.158Z,2.10
2018-09-29T22:57:12.665Z,1.70
2018-09-29T22:59:40.959Z,2.07
2018-09-29T23:02:09.706Z,2.67
2018-09-29T23:04:38.125Z,2.00
2018-09-29T23:07:06.580Z,1.90
2018-09-29T23:09:34.974Z,1.73
2018-09-29T23:12:04.254Z,2.00
2018-09-29T23:14:32.528Z,3.20
2018-09-29T23:17:01.044Z,2.00
2018-09-29T23:19:29.688Z,1.80
2018-09-29T23:21:58.195Z,2.50
2018-09-29T23:24:26.597Z,2.30
2018-09-29T23:26:55.084Z,1.70
2018-09-29T23:29:23.600Z,1.83
2018-09-29T23:31:52.049Z,2.25
2018-09-29T23:34:20.219Z,2.27
2018-09-29T23:36:48.552Z,1.87
2018-09-29T23:39:16.996Z,2.33
2018-09-29T23:41:45.489Z,2.20
2018-09-29T23:44:14.001Z,2.00
2018-09-29T23:46:42.490Z,2.03
2018-09-29T23:49:10.976Z,2.23
2018-09-29T23:51:39.473Z,2.63
2018-09-29T23:54:07.810Z,2.83
2018-09-29T23:56:35.991Z,2.40
2018-09-29T23:59:04.285Z,2.90
